sensor_id;sensor_type;location;lat;lon;timestamp;P1;durP1;ratioP1;P2;durP2;ratioP2
77826;SDS011;67016;42.508;25.678;2023-03-26T00:01:26;25.63;;;16.13;;
77826;SDS011;67016;42.508;25.678;2023-03-26T00:03:53;33.22;;;15.68;;
77826;SDS011;67016;42.508;25.678;2023-03-26T00:06:21;12.27;;;8.13;;
77826;SDS011;67016;42.508;25.678;2023-03-26T00:08:49;9.88;;;6.93;;
77826;SDS011;67016;42.508;25.678;2023-03-26T00:11:15;17.20;;;10.88;;
77826;SDS011;67016;42.508;25.678;2023-03-26T00:13:43;16.75;;;10.35;;
77826;SDS011;67016;42.508;25.678;2023-03-26T00:16:09;18.20;;;12.48;;
77826;SDS011;67016;42.508;25.678;2023-03-26T00:18:36;14.73;;;9.48;;
77826;SDS011;67016;42.508;25.678;2023-03-26T00:21:05;16.77;;;11.85;;
77826;SDS011;67016;42.508;25.678;2023-03-26T00:23:32;21.35;;;16.30;;
77826;SDS011;67016;42.508;25.678;2023-03-26T00:25:59;19.73;;;13.10;;
77826;SDS011;67016;42.508;25.678;2023-03-26T00:28:26;22.58;;;14.13;;
77826;SDS011;67016;42.508;25.678;2023-03-26T00:31:02;20.33;;;13.10;;
77826;SDS011;67016;42.508;25.678;2023-03-26T00:33:29;16.85;;;11.75;;
77826;SDS011;67016;42.508;25.678;2023-03-26T00:35:58;11.45;;;9.95;;
77826;SDS011;67016;42.508;25.678;2023-03-26T00:38:26;14.02;;;9.73;;
77826;SDS011;67016;42.508;25.678;2023-03-26T00:40:52;13.50;;;9.93;;
77826;SDS011;67016;42.508;25.678;2023-03-26T00:43:19;12.68;;;9.93;;
77826;SDS011;67016;42.508;25.678;2023-03-26T00:46:07;15.75;;;10.50;;
77826;SDS011;67016;42.508;25.678;2023-03-26T00:48:32;13.30;;;10.85;;
77826;SDS011;67016;42.508;25.678;2023-03-26T00:50:58;10.88;;;9.43;;
77826;SDS011;67016;42.508;25.678;2023-03-26T00:53:25;13.18;;;9.90;;
77826;SDS011;67016;42.508;25.678;2023-03-26T00:55:51;14.55;;;10.50;;
77826;SDS011;67016;42.508;25.678;2023-03-26T00:58:16;12.68;;;9.60;;
77826;SDS011;67016;42.508;25.678;2023-03-26T01:00:50;12.88;;;9.90;;
77826;SDS011;67016;42.508;25.678;2023-03-26T01:03:21;11.82;;;9.10;;
77826;SDS011;67016;42.508;25.678;2023-03-26T01:05:54;11.35;;;8.73;;
77826;SDS011;67016;42.508;25.678;2023-03-26T01:08:29;11.80;;;8.80;;
77826;SDS011;67016;42.508;25.678;2023-03-26T01:11:00;9.55;;;7.82;;
77826;SDS011;67016;42.508;25.678;2023-03-26T01:13:31;8.88;;;7.28;;
77826;SDS011;67016;42.508;25.678;2023-03-26T01:15:59;8.98;;;6.75;;
77826;SDS011;67016;42.508;25.678;2023-03-26T01:18:27;10.95;;;7.35;;
77826;SDS011;67016;42.508;25.678;2023-03-26T01:20:58;7.95;;;6.45;;
77826;SDS011;67016;42.508;25.678;2023-03-26T01:24:29;11.82;;;7.40;;
77826;SDS011;67016;42.508;25.678;2023-03-26T01:29:43;7.80;;;6.47;;
77826;SDS011;67016;42.508;25.678;2023-03-26T01:37:32;8.73;;;7.03;;
77826;SDS011;67016;42.508;25.678;2023-03-26T01:45:33;9.52;;;7.20;;
77826;SDS011;67016;42.508;25.678;2023-03-26T01:48:00;9.88;;;7.45;;
77826;SDS011;67016;42.508;25.678;2023-03-26T01:50:26;9.82;;;7.68;;
77826;SDS011;67016;42.508;25.678;2023-03-26T01:52:55;13.93;;;8.63;;
77826;SDS011;67016;42.508;25.678;2023-03-26T01:55:21;12.88;;;8.77;;
77826;SDS011;67016;42.508;25.678;2023-03-26T01:57:58;11.07;;;8.23;;
77826;SDS011;67016;42.508;25.678;2023-03-26T02:00:29;10.50;;;8.55;;
77826;SDS011;67016;42.508;25.678;2023-03-26T02:08:50;9.07;;;7.35;;
77826;SDS011;67016;42.508;25.678;2023-03-26T02:11:18;9.25;;;7.75;;
77826;SDS011;67016;42.508;25.678;2023-03-26T02:13:44;21.77;;;10.57;;
77826;SDS011;67016;42.508;25.678;2023-03-26T02:16:12;13.40;;;9.70;;
77826;SDS011;67016;42.508;25.678;2023-03-26T02:18:40;13.53;;;10.00;;
77826;SDS011;67016;42.508;25.678;2023-03-26T02:21:17;15.90;;;10.65;;
77826;SDS011;67016;42.508;25.678;2023-03-26T02:23:44;14.77;;;10.50;;
77826;SDS011;67016;42.508;25.678;2023-03-26T02:26:13;11.77;;;8.75;;
77826;SDS011;67016;42.508;25.678;2023-03-26T02:28:39;10.32;;;8.25;;
77826;SDS011;67016;42.508;25.678;2023-03-26T02:31:06;13.60;;;9.20;;
77826;SDS011;67016;42.508;25.678;2023-03-26T02:33:35;19.03;;;11.47;;
77826;SDS011;67016;42.508;25.678;2023-03-26T02:36:01;36.08;;;17.42;;
77826;SDS011;67016;42.508;25.678;2023-03-26T02:38:28;27.27;;;14.73;;
77826;SDS011;67016;42.508;25.678;2023-03-26T02:43:23;17.55;;;10.85;;
77826;SDS011;67016;42.508;25.678;2023-03-26T02:45:49;12.18;;;10.02;;
77826;SDS011;67016;42.508;25.678;2023-03-26T02:48:14;20.08;;;10.40;;
77826;SDS011;67016;42.508;25.678;2023-03-26T02:50:41;17.88;;;10.68;;
77826;SDS011;67016;42.508;25.678;2023-03-26T02:53:07;16.40;;;10.18;;
77826;SDS011;67016;42.508;25.678;2023-03-26T02:55:32;18.83;;;9.95;;
77826;SDS011;67016;42.508;25.678;2023-03-26T02:57:58;10.35;;;6.10;;
77826;SDS011;67016;42.508;25.678;2023-03-26T03:00:24;8.00;;;5.82;;
77826;SDS011;67016;42.508;25.678;2023-03-26T03:02:50;7.30;;;4.93;;
77826;SDS011;67016;42.508;25.678;2023-03-26T03:05:17;6.70;;;5.03;;
77826;SDS011;67016;42.508;25.678;2023-03-26T03:07:43;6.35;;;4.00;;
77826;SDS011;67016;42.508;25.678;2023-03-26T03:10:11;7.10;;;4.60;;
77826;SDS011;67016;42.508;25.678;2023-03-26T03:12:39;5.05;;;4.50;;
77826;SDS011;67016;42.508;25.678;2023-03-26T03:15:05;8.25;;;4.60;;
77826;SDS011;67016;42.508;25.678;2023-03-26T03:17:32;5.07;;;4.53;;
77826;SDS011;67016;42.508;25.678;2023-03-26T03:19:58;6.20;;;5.18;;
77826;SDS011;67016;42.508;25.678;2023-03-26T03:22:24;5.68;;;4.82;;
77826;SDS011;67016;42.508;25.678;2023-03-26T03:24:50;6.78;;;4.55;;
77826;SDS011;67016;42.508;25.678;2023-03-26T03:27:22;4.95;;;4.55;;
77826;SDS011;67016;42.508;25.678;2023-03-26T03:29:50;5.85;;;4.75;;
77826;SDS011;67016;42.508;25.678;2023-03-26T03:32:18;6.50;;;5.20;;
77826;SDS011;67016;42.508;25.678;2023-03-26T03:34:44;8.10;;;5.15;;
77826;SDS011;67016;42.508;25.678;2023-03-26T03:37:10;9.25;;;5.90;;
77826;SDS011;67016;42.508;25.678;2023-03-26T03:39:37;8.93;;;6.30;;
77826;SDS011;67016;42.508;25.678;2023-03-26T03:42:02;9.45;;;6.35;;
77826;SDS011;67016;42.508;25.678;2023-03-26T03:44:28;8.73;;;6.28;;
77826;SDS011;67016;42.508;25.678;2023-03-26T03:46:54;8.70;;;6.28;;
77826;SDS011;67016;42.508;25.678;2023-03-26T03:49:21;5.75;;;5.00;;
77826;SDS011;67016;42.508;25.678;2023-03-26T03:51:47;5.53;;;4.85;;
77826;SDS011;67016;42.508;25.678;2023-03-26T03:54:13;6.18;;;5.30;;
77826;SDS011;67016;42.508;25.678;2023-03-26T03:56:39;8.00;;;5.40;;
77826;SDS011;67016;42.508;25.678;2023-03-26T03:59:05;6.63;;;5.85;;
77826;SDS011;67016;42.508;25.678;2023-03-26T04:01:33;9.55;;;5.90;;
77826;SDS011;67016;42.508;25.678;2023-03-26T04:03:59;8.18;;;5.85;;
77826;SDS011;67016;42.508;25.678;2023-03-26T04:06:24;5.53;;;4.10;;
77826;SDS011;67016;42.508;25.678;2023-03-26T04:08:54;3.63;;;3.25;;
77826;SDS011;67016;42.508;25.678;2023-03-26T04:11:20;4.93;;;3.75;;
77826;SDS011;67016;42.508;25.678;2023-03-26T04:13:47;4.40;;;3.08;;
77826;SDS011;67016;42.508;25.678;2023-03-26T04:16:13;3.50;;;2.97;;
77826;SDS011;67016;42.508;25.678;2023-03-26T04:18:39;3.47;;;2.72;;
77826;SDS011;67016;42.508;25.678;2023-03-26T04:21:05;9.10;;;4.18;;
77826;SDS011;67016;42.508;25.678;2023-03-26T04:23:31;3.58;;;2.75;;
77826;SDS011;67016;42.508;25.678;2023-03-26T04:26:01;4.07;;;2.75;;
77826;SDS011;67016;42.508;25.678;2023-03-26T04:28:32;4.72;;;2.60;;
77826;SDS011;67016;42.508;25.678;2023-03-26T04:31:00;4.05;;;2.40;;
77826;SDS011;67016;42.508;25.678;2023-03-26T04:33:31;2.80;;;2.47;;
77826;SDS011;67016;42.508;25.678;2023-03-26T04:38:30;3.55;;;2.60;;
77826;SDS011;67016;42.508;25.678;2023-03-26T04:41:03;2.80;;;2.05;;
77826;SDS011;67016;42.508;25.678;2023-03-26T04:43:32;3.25;;;1.67;;
77826;SDS011;67016;42.508;25.678;2023-03-26T04:45:59;4.10;;;1.88;;
77826;SDS011;67016;42.508;25.678;2023-03-26T04:48:28;3.38;;;2.00;;
77826;SDS011;67016;42.508;25.678;2023-03-26T04:50:54;3.08;;;1.58;;
77826;SDS011;67016;42.508;25.678;2023-03-26T04:53:20;3.67;;;1.63;;
77826;SDS011;67016;42.508;25.678;2023-03-26T04:55:49;4.35;;;1.55;;
77826;SDS011;67016;42.508;25.678;2023-03-26T04:58:17;1.48;;;1.30;;
77826;SDS011;67016;42.508;25.678;2023-03-26T05:00:43;2.50;;;1.52;;
77826;SDS011;67016;42.508;25.678;2023-03-26T05:03:09;2.35;;;1.90;;
77826;SDS011;67016;42.508;25.678;2023-03-26T05:05:35;3.72;;;2.50;;
77826;SDS011;67016;42.508;25.678;2023-03-26T05:08:01;4.72;;;2.38;;
77826;SDS011;67016;42.508;25.678;2023-03-26T05:10:27;4.25;;;2.30;;
77826;SDS011;67016;42.508;25.678;2023-03-26T05:12:53;2.15;;;1.85;;
77826;SDS011;67016;42.508;25.678;2023-03-26T05:15:18;1.90;;;1.70;;
77826;SDS011;67016;42.508;25.678;2023-03-26T05:17:44;2.67;;;2.45;;
77826;SDS011;67016;42.508;25.678;2023-03-26T05:22:45;2.78;;;2.55;;
77826;SDS011;67016;42.508;25.678;2023-03-26T05:25:11;3.90;;;2.30;;
77826;SDS011;67016;42.508;25.678;2023-03-26T05:27:37;2.38;;;2.17;;
77826;SDS011;67016;42.508;25.678;2023-03-26T05:30:03;2.03;;;1.83;;
77826;SDS011;67016;42.508;25.678;2023-03-26T05:32:30;3.88;;;2.30;;
77826;SDS011;67016;42.508;25.678;2023-03-26T05:34:56;3.55;;;2.30;;
77826;SDS011;67016;42.508;25.678;2023-03-26T05:37:22;3.25;;;2.80;;
77826;SDS011;67016;42.508;25.678;2023-03-26T05:39:51;4.05;;;3.10;;
77826;SDS011;67016;42.508;25.678;2023-03-26T05:42:20;4.45;;;2.90;;
77826;SDS011;67016;42.508;25.678;2023-03-26T05:44:46;2.83;;;2.30;;
77826;SDS011;67016;42.508;25.678;2023-03-26T05:47:11;3.38;;;2.20;;
77826;SDS011;67016;42.508;25.678;2023-03-26T05:49:37;2.97;;;2.67;;
77826;SDS011;67016;42.508;25.678;2023-03-26T05:52:03;2.33;;;2.05;;
77826;SDS011;67016;42.508;25.678;2023-03-26T05:54:29;2.95;;;2.22;;
77826;SDS011;67016;42.508;25.678;2023-03-26T05:56:55;3.63;;;1.83;;
77826;SDS011;67016;42.508;25.678;2023-03-26T05:59:22;2.10;;;1.73;;
77826;SDS011;67016;42.508;25.678;2023-03-26T06:01:48;3.58;;;2.10;;
77826;SDS011;67016;42.508;25.678;2023-03-26T06:04:15;4.00;;;2.20;;
77826;SDS011;67016;42.508;25.678;2023-03-26T06:06:41;6.38;;;3.58;;
77826;SDS011;67016;42.508;25.678;2023-03-26T06:09:13;9.68;;;4.07;;
77826;SDS011;67016;42.508;25.678;2023-03-26T06:11:39;1.85;;;1.42;;
77826;SDS011;67016;42.508;25.678;2023-03-26T06:14:06;4.13;;;2.08;;
77826;SDS011;67016;42.508;25.678;2023-03-26T06:16:31;3.17;;;1.73;;
77826;SDS011;67016;42.508;25.678;2023-03-26T06:18:57;1.98;;;1.52;;
77826;SDS011;67016;42.508;25.678;2023-03-26T06:21:26;3.17;;;2.10;;
77826;SDS011;67016;42.508;25.678;2023-03-26T06:23:52;3.25;;;2.10;;
77826;SDS011;67016;42.508;25.678;2023-03-26T06:26:18;3.88;;;1.80;;
77826;SDS011;67016;42.508;25.678;2023-03-26T06:28:45;2.95;;;2.28;;
77826;SDS011;67016;42.508;25.678;2023-03-26T06:31:11;2.97;;;1.65;;
77826;SDS011;67016;42.508;25.678;2023-03-26T06:33:37;3.17;;;1.80;;
77826;SDS011;67016;42.508;25.678;2023-03-26T06:36:03;3.70;;;2.00;;
77826;SDS011;67016;42.508;25.678;2023-03-26T06:38:29;5.82;;;2.95;;
77826;SDS011;67016;42.508;25.678;2023-03-26T06:41:05;3.85;;;1.67;;
77826;SDS011;67016;42.508;25.678;2023-03-26T06:43:31;3.40;;;2.17;;
77826;SDS011;67016;42.508;25.678;2023-03-26T06:45:59;5.13;;;1.55;;
77826;SDS011;67016;42.508;25.678;2023-03-26T06:48:27;2.42;;;1.67;;
77826;SDS011;67016;42.508;25.678;2023-03-26T06:50:55;1.95;;;1.67;;
77826;SDS011;67016;42.508;25.678;2023-03-26T06:53:21;4.13;;;2.00;;
77826;SDS011;67016;42.508;25.678;2023-03-26T06:55:48;2.40;;;1.80;;
77826;SDS011;67016;42.508;25.678;2023-03-26T06:58:14;6.72;;;1.85;;
77826;SDS011;67016;42.508;25.678;2023-03-26T07:00:42;3.85;;;2.08;;
77826;SDS011;67016;42.508;25.678;2023-03-26T07:03:09;2.53;;;1.75;;
77826;SDS011;67016;42.508;25.678;2023-03-26T07:05:35;2.38;;;1.48;;
77826;SDS011;67016;42.508;25.678;2023-03-26T07:08:01;3.00;;;1.80;;
77826;SDS011;67016;42.508;25.678;2023-03-26T07:10:28;3.38;;;1.92;;
77826;SDS011;67016;42.508;25.678;2023-03-26T07:12:54;2.92;;;2.30;;
77826;SDS011;67016;42.508;25.678;2023-03-26T07:15:20;2.80;;;2.05;;
77826;SDS011;67016;42.508;25.678;2023-03-26T07:17:48;1.67;;;1.55;;
77826;SDS011;67016;42.508;25.678;2023-03-26T07:20:14;3.75;;;1.80;;
77826;SDS011;67016;42.508;25.678;2023-03-26T07:22:40;3.40;;;2.15;;
77826;SDS011;67016;42.508;25.678;2023-03-26T07:25:06;3.22;;;1.45;;
77826;SDS011;67016;42.508;25.678;2023-03-26T07:30:45;3.58;;;1.42;;
77826;SDS011;67016;42.508;25.678;2023-03-26T07:33:23;3.60;;;2.13;;
77826;SDS011;67016;42.508;25.678;2023-03-26T07:36:12;3.63;;;2.03;;
77826;SDS011;67016;42.508;25.678;2023-03-26T07:39:12;2.65;;;1.55;;
77826;SDS011;67016;42.508;25.678;2023-03-26T07:42:03;3.15;;;2.35;;
77826;SDS011;67016;42.508;25.678;2023-03-26T07:44:45;1.77;;;1.08;;
77826;SDS011;67016;42.508;25.678;2023-03-26T07:47:22;6.68;;;1.90;;
77826;SDS011;67016;42.508;25.678;2023-03-26T07:49:54;2.67;;;1.10;;
77826;SDS011;67016;42.508;25.678;2023-03-26T07:52:22;10.05;;;1.55;;
77826;SDS011;67016;42.508;25.678;2023-03-26T07:54:54;3.03;;;1.20;;
77826;SDS011;67016;42.508;25.678;2023-03-26T08:00:39;5.50;;;1.10;;
77826;SDS011;67016;42.508;25.678;2023-03-26T08:05:57;9.55;;;5.72;;
77826;SDS011;67016;42.508;25.678;2023-03-26T08:14:19;5.22;;;3.10;;
77826;SDS011;67016;42.508;25.678;2023-03-26T08:25:17;1.98;;;1.42;;
77826;SDS011;67016;42.508;25.678;2023-03-26T08:27:50;3.63;;;2.55;;
77826;SDS011;67016;42.508;25.678;2023-03-26T08:30:38;4.55;;;2.80;;
77826;SDS011;67016;42.508;25.678;2023-03-26T08:33:10;2.85;;;1.60;;
77826;SDS011;67016;42.508;25.678;2023-03-26T08:35:44;2.85;;;1.90;;
77826;SDS011;67016;42.508;25.678;2023-03-26T08:38:14;2.58;;;1.25;;
77826;SDS011;67016;42.508;25.678;2023-03-26T08:54:27;2.28;;;1.77;;
77826;SDS011;67016;42.508;25.678;2023-03-26T09:25:52;4.90;;;1.10;;
77826;SDS011;67016;42.508;25.678;2023-03-26T09:35:11;2.10;;;1.25;;
77826;SDS011;67016;42.508;25.678;2023-03-26T09:37:49;2.80;;;1.10;;
77826;SDS011;67016;42.508;25.678;2023-03-26T09:43:53;2.70;;;0.90;;
77826;SDS011;67016;42.508;25.678;2023-03-26T09:57:28;1.30;;;1.20;;
77826;SDS011;67016;42.508;25.678;2023-03-26T10:00:43;1.73;;;0.90;;
77826;SDS011;67016;42.508;25.678;2023-03-26T10:03:40;1.02;;;0.93;;
77826;SDS011;67016;42.508;25.678;2023-03-26T10:09:21;1.20;;;0.90;;
77826;SDS011;67016;42.508;25.678;2023-03-26T10:12:03;2.20;;;1.10;;
77826;SDS011;67016;42.508;25.678;2023-03-26T10:20:05;0.85;;;0.80;;
77826;SDS011;67016;42.508;25.678;2023-03-26T10:26:01;1.17;;;1.00;;
77826;SDS011;67016;42.508;25.678;2023-03-26T10:31:45;4.60;;;0.70;;
77826;SDS011;67016;42.508;25.678;2023-03-26T10:36:53;1.83;;;0.82;;
77826;SDS011;67016;42.508;25.678;2023-03-26T10:39:59;1.38;;;0.70;;
77826;SDS011;67016;42.508;25.678;2023-03-26T10:53:43;1.17;;;0.80;;
77826;SDS011;67016;42.508;25.678;2023-03-26T10:56:26;1.55;;;0.90;;
77826;SDS011;67016;42.508;25.678;2023-03-26T11:01:41;3.03;;;1.17;;
77826;SDS011;67016;42.508;25.678;2023-03-26T11:09:56;3.20;;;0.90;;
77826;SDS011;67016;42.508;25.678;2023-03-26T11:32:00;1.98;;;1.10;;
77826;SDS011;67016;42.508;25.678;2023-03-26T11:34:37;1.65;;;0.60;;
77826;SDS011;67016;42.508;25.678;2023-03-26T11:37:11;2.05;;;0.95;;
77826;SDS011;67016;42.508;25.678;2023-03-26T11:39:52;1.65;;;0.70;;
77826;SDS011;67016;42.508;25.678;2023-03-26T11:42:20;1.90;;;1.48;;
77826;SDS011;67016;42.508;25.678;2023-03-26T11:44:58;0.97;;;0.90;;
77826;SDS011;67016;42.508;25.678;2023-03-26T11:47:46;1.50;;;0.68;;
77826;SDS011;67016;42.508;25.678;2023-03-26T11:50:44;1.52;;;1.42;;
77826;SDS011;67016;42.508;25.678;2023-03-26T11:53:13;1.85;;;0.80;;
77826;SDS011;67016;42.508;25.678;2023-03-26T11:58:50;1.30;;;0.80;;
77826;SDS011;67016;42.508;25.678;2023-03-26T12:01:24;2.63;;;1.00;;
77826;SDS011;67016;42.508;25.678;2023-03-26T12:04:05;1.92;;;1.27;;
77826;SDS011;67016;42.508;25.678;2023-03-26T12:06:37;2.00;;;0.80;;
77826;SDS011;67016;42.508;25.678;2023-03-26T12:09:14;1.60;;;0.77;;
77826;SDS011;67016;42.508;25.678;2023-03-26T12:11:44;0.70;;;0.70;;
77826;SDS011;67016;42.508;25.678;2023-03-26T12:14:15;1.40;;;0.40;;
77826;SDS011;67016;42.508;25.678;2023-03-26T12:19:34;1.05;;;0.70;;
77826;SDS011;67016;42.508;25.678;2023-03-26T12:22:05;1.67;;;0.90;;
77826;SDS011;67016;42.508;25.678;2023-03-26T12:24:32;1.50;;;0.70;;
77826;SDS011;67016;42.508;25.678;2023-03-26T12:29:27;0.75;;;0.50;;
77826;SDS011;67016;42.508;25.678;2023-03-26T12:32:58;0.60;;;0.60;;
77826;SDS011;67016;42.508;25.678;2023-03-26T12:35:03;0.98;;;0.70;;
77826;SDS011;67016;42.508;25.678;2023-03-26T12:37:39;1.65;;;0.73;;
77826;SDS011;67016;42.508;25.678;2023-03-26T12:42:55;0.80;;;0.60;;
77826;SDS011;67016;42.508;25.678;2023-03-26T12:45:28;1.40;;;0.50;;
77826;SDS011;67016;42.508;25.678;2023-03-26T12:53:31;1.55;;;0.43;;
77826;SDS011;67016;42.508;25.678;2023-03-26T12:56:17;0.47;;;0.38;;
77826;SDS011;67016;42.508;25.678;2023-03-26T13:07:16;1.05;;;0.70;;
77826;SDS011;67016;42.508;25.678;2023-03-26T13:15:11;1.73;;;0.85;;
77826;SDS011;67016;42.508;25.678;2023-03-26T13:20:44;0.57;;;0.40;;
77826;SDS011;67016;42.508;25.678;2023-03-26T13:46:19;1.40;;;0.60;;
77826;SDS011;67016;42.508;25.678;2023-03-26T13:49:27;2.17;;;0.60;;
77826;SDS011;67016;42.508;25.678;2023-03-26T13:52:09;1.25;;;0.63;;
77826;SDS011;67016;42.508;25.678;2023-03-26T13:54:48;0.43;;;0.40;;
77826;SDS011;67016;42.508;25.678;2023-03-26T13:57:30;0.47;;;0.47;;
77826;SDS011;67016;42.508;25.678;2023-03-26T14:00:05;0.50;;;0.50;;
77826;SDS011;67016;42.508;25.678;2023-03-26T14:03:03;0.73;;;0.60;;
77826;SDS011;67016;42.508;25.678;2023-03-26T14:05:35;1.02;;;0.45;;
77826;SDS011;67016;42.508;25.678;2023-03-26T14:13:40;1.35;;;0.60;;
77826;SDS011;67016;42.508;25.678;2023-03-26T14:16:13;0.63;;;0.50;;
77826;SDS011;67016;42.508;25.678;2023-03-26T14:18:47;2.15;;;1.13;;
77826;SDS011;67016;42.508;25.678;2023-03-26T14:21:35;2.67;;;1.10;;
77826;SDS011;67016;42.508;25.678;2023-03-26T14:32:44;2.55;;;1.35;;
77826;SDS011;67016;42.508;25.678;2023-03-26T14:38:05;2.30;;;1.30;;
77826;SDS011;67016;42.508;25.678;2023-03-26T14:44:10;0.50;;;0.50;;
77826;SDS011;67016;42.508;25.678;2023-03-26T14:55:40;3.35;;;2.63;;
77826;SDS011;67016;42.508;25.678;2023-03-26T15:01:19;2.35;;;0.88;;
77826;SDS011;67016;42.508;25.678;2023-03-26T15:12:47;2.50;;;1.98;;
77826;SDS011;67016;42.508;25.678;2023-03-26T16:02:21;2.85;;;1.60;;
77826;SDS011;67016;42.508;25.678;2023-03-26T16:05:24;2.88;;;1.80;;
77826;SDS011;67016;42.508;25.678;2023-03-26T16:08:17;6.47;;;1.90;;
77826;SDS011;67016;42.508;25.678;2023-03-26T16:10:56;2.03;;;1.20;;
77826;SDS011;67016;42.508;25.678;2023-03-26T16:14:06;0.98;;;0.70;;
77826;SDS011;67016;42.508;25.678;2023-03-26T16:16:51;4.45;;;1.73;;
77826;SDS011;67016;42.508;25.678;2023-03-26T16:22:05;0.57;;;0.40;;
77826;SDS011;67016;42.508;25.678;2023-03-26T16:24:37;2.50;;;1.83;;
77826;SDS011;67016;42.508;25.678;2023-03-26T16:30:06;2.33;;;1.00;;
77826;SDS011;67016;42.508;25.678;2023-03-26T16:32:43;6.18;;;2.50;;
77826;SDS011;67016;42.508;25.678;2023-03-26T16:35:49;1.42;;;1.13;;
77826;SDS011;67016;42.508;25.678;2023-03-26T16:38:19;0.82;;;0.68;;
77826;SDS011;67016;42.508;25.678;2023-03-26T16:43:36;2.42;;;1.70;;
77826;SDS011;67016;42.508;25.678;2023-03-26T16:57:52;0.95;;;0.70;;
77826;SDS011;67016;42.508;25.678;2023-03-26T17:00:49;2.22;;;0.75;;
77826;SDS011;67016;42.508;25.678;2023-03-26T17:03:53;2.20;;;1.08;;
77826;SDS011;67016;42.508;25.678;2023-03-26T17:11:58;0.98;;;0.77;;
77826;SDS011;67016;42.508;25.678;2023-03-26T17:17:28;1.90;;;1.05;;
77826;SDS011;67016;42.508;25.678;2023-03-26T17:20:13;0.73;;;0.65;;
77826;SDS011;67016;42.508;25.678;2023-03-26T17:29:23;1.10;;;1.00;;
77826;SDS011;67016;42.508;25.678;2023-03-26T17:34:58;0.95;;;0.95;;
77826;SDS011;67016;42.508;25.678;2023-03-26T17:37:30;1.08;;;1.00;;
77826;SDS011;67016;42.508;25.678;2023-03-26T17:43:31;28.92;;;9.35;;
77826;SDS011;67016;42.508;25.678;2023-03-26T17:46:16;23.95;;;16.40;;
77826;SDS011;67016;42.508;25.678;2023-03-26T17:49:23;67.00;;;41.97;;
77826;SDS011;67016;42.508;25.678;2023-03-26T17:57:02;4.97;;;4.10;;
77826;SDS011;67016;42.508;25.678;2023-03-26T17:59:33;9.65;;;6.00;;
77826;SDS011;67016;42.508;25.678;2023-03-26T18:02:02;14.07;;;9.90;;
77826;SDS011;67016;42.508;25.678;2023-03-26T18:04:37;15.20;;;10.23;;
77826;SDS011;67016;42.508;25.678;2023-03-26T18:15:48;30.15;;;20.77;;
77826;SDS011;67016;42.508;25.678;2023-03-26T18:18:47;32.83;;;26.13;;
77826;SDS011;67016;42.508;25.678;2023-03-26T18:21:19;49.58;;;44.53;;
77826;SDS011;67016;42.508;25.678;2023-03-26T18:23:57;4.50;;;4.05;;
77826;SDS011;67016;42.508;25.678;2023-03-26T18:26:42;7.13;;;6.20;;
77826;SDS011;67016;42.508;25.678;2023-03-26T18:29:18;7.70;;;6.32;;
77826;SDS011;67016;42.508;25.678;2023-03-26T18:31:52;15.15;;;11.65;;
77826;SDS011;67016;42.508;25.678;2023-03-26T18:34:30;33.20;;;28.25;;
77826;SDS011;67016;42.508;25.678;2023-03-26T18:39:27;18.17;;;14.23;;
77826;SDS011;67016;42.508;25.678;2023-03-26T18:41:56;9.43;;;8.13;;
77826;SDS011;67016;42.508;25.678;2023-03-26T18:44:22;13.00;;;8.55;;
77826;SDS011;67016;42.508;25.678;2023-03-26T18:46:48;1.00;;;0.90;;
77826;SDS011;67016;42.508;25.678;2023-03-26T18:49:19;2.60;;;2.08;;
77826;SDS011;67016;42.508;25.678;2023-03-26T18:51:46;3.67;;;1.38;;
77826;SDS011;67016;42.508;25.678;2023-03-26T18:54:18;0.90;;;0.90;;
77826;SDS011;67016;42.508;25.678;2023-03-26T18:56:46;4.20;;;1.00;;
77826;SDS011;67016;42.508;25.678;2023-03-26T19:02:01;1.30;;;1.20;;
77826;SDS011;67016;42.508;25.678;2023-03-26T19:04:29;2.10;;;1.88;;
77826;SDS011;67016;42.508;25.678;2023-03-26T19:06:59;1.35;;;1.10;;
77826;SDS011;67016;42.508;25.678;2023-03-26T19:09:26;0.80;;;0.80;;
77826;SDS011;67016;42.508;25.678;2023-03-26T19:11:53;1.33;;;0.90;;
77826;SDS011;67016;42.508;25.678;2023-03-26T19:14:21;1.80;;;1.02;;
77826;SDS011;67016;42.508;25.678;2023-03-26T19:16:54;4.32;;;1.13;;
77826;SDS011;67016;42.508;25.678;2023-03-26T19:19:25;3.70;;;1.40;;
77826;SDS011;67016;42.508;25.678;2023-03-26T19:21:56;1.75;;;1.38;;
77826;SDS011;67016;42.508;25.678;2023-03-26T19:24:22;1.33;;;0.93;;
77826;SDS011;67016;42.508;25.678;2023-03-26T19:26:49;1.80;;;0.95;;
77826;SDS011;67016;42.508;25.678;2023-03-26T19:29:19;1.27;;;1.00;;
77826;SDS011;67016;42.508;25.678;2023-03-26T19:31:52;1.48;;;1.02;;
77826;SDS011;67016;42.508;25.678;2023-03-26T19:34:26;2.10;;;0.93;;
77826;SDS011;67016;42.508;25.678;2023-03-26T19:37:17;2.03;;;0.90;;
77826;SDS011;67016;42.508;25.678;2023-03-26T19:39:49;1.98;;;1.00;;
77826;SDS011;67016;42.508;25.678;2023-03-26T19:42:26;1.60;;;1.20;;
77826;SDS011;67016;42.508;25.678;2023-03-26T19:44:57;1.23;;;1.02;;
77826;SDS011;67016;42.508;25.678;2023-03-26T19:47:29;1.90;;;0.90;;
77826;SDS011;67016;42.508;25.678;2023-03-26T19:49:58;2.33;;;1.00;;
77826;SDS011;67016;42.508;25.678;2023-03-26T19:52:31;1.10;;;0.90;;
77826;SDS011;67016;42.508;25.678;2023-03-26T19:57:43;1.75;;;1.20;;
77826;SDS011;67016;42.508;25.678;2023-03-26T20:00:09;1.73;;;1.63;;
77826;SDS011;67016;42.508;25.678;2023-03-26T20:02:39;4.38;;;2.40;;
77826;SDS011;67016;42.508;25.678;2023-03-26T20:05:20;3.70;;;1.83;;
77826;SDS011;67016;42.508;25.678;2023-03-26T20:07:55;2.50;;;1.70;;
77826;SDS011;67016;42.508;25.678;2023-03-26T20:10:22;3.13;;;1.80;;
77826;SDS011;67016;42.508;25.678;2023-03-26T20:12:48;3.03;;;1.63;;
77826;SDS011;67016;42.508;25.678;2023-03-26T20:15:22;2.50;;;2.08;;
77826;SDS011;67016;42.508;25.678;2023-03-26T20:17:49;1.23;;;1.13;;
77826;SDS011;67016;42.508;25.678;2023-03-26T20:20:21;2.03;;;1.33;;
77826;SDS011;67016;42.508;25.678;2023-03-26T20:22:52;9.63;;;6.28;;
77826;SDS011;67016;42.508;25.678;2023-03-26T20:25:19;10.30;;;6.90;;
77826;SDS011;67016;42.508;25.678;2023-03-26T20:27:48;5.32;;;2.78;;
77826;SDS011;67016;42.508;25.678;2023-03-26T20:30:15;3.35;;;1.70;;
77826;SDS011;67016;42.508;25.678;2023-03-26T20:32:41;31.52;;;17.13;;
77826;SDS011;67016;42.508;25.678;2023-03-26T20:35:13;30.23;;;18.67;;
77826;SDS011;67016;42.508;25.678;2023-03-26T20:37:43;3.75;;;2.80;;
77826;SDS011;67016;42.508;25.678;2023-03-26T20:40:09;3.78;;;3.38;;
77826;SDS011;67016;42.508;25.678;2023-03-26T20:42:36;3.83;;;2.22;;
77826;SDS011;67016;42.508;25.678;2023-03-26T20:45:16;4.72;;;2.45;;
77826;SDS011;67016;42.508;25.678;2023-03-26T20:47:43;7.28;;;4.78;;
77826;SDS011;67016;42.508;25.678;2023-03-26T20:50:12;20.75;;;13.52;;
77826;SDS011;67016;42.508;25.678;2023-03-26T20:52:38;3.17;;;2.53;;
77826;SDS011;67016;42.508;25.678;2023-03-26T20:55:05;5.45;;;2.42;;
77826;SDS011;67016;42.508;25.678;2023-03-26T20:57:33;3.08;;;1.70;;
77826;SDS011;67016;42.508;25.678;2023-03-26T20:59:59;4.80;;;2.95;;
77826;SDS011;67016;42.508;25.678;2023-03-26T21:02:25;3.90;;;2.03;;
77826;SDS011;67016;42.508;25.678;2023-03-26T21:04:50;8.35;;;3.95;;
77826;SDS011;67016;42.508;25.678;2023-03-26T21:07:17;19.55;;;11.15;;
77826;SDS011;67016;42.508;25.678;2023-03-26T21:09:45;7.03;;;4.15;;
77826;SDS011;67016;42.508;25.678;2023-03-26T21:12:15;4.65;;;2.97;;
77826;SDS011;67016;42.508;25.678;2023-03-26T21:14:46;6.47;;;2.95;;
77826;SDS011;67016;42.508;25.678;2023-03-26T21:17:14;2.80;;;2.10;;